Time;durP1;ratioP1;P1;durP2;ratioP2;P2;SDS_P1;SDS_P2;PMS_P1;PMS_P2;Temp;Humidity;BMP_temperature;BMP_pressure;BME280_temperature;BME280_humidity;BME280_pressure;Samples;Min_cycle;Max_cycle;Signal;HPM_P1;HPM_P2
2023/08/12 00:00:11;;;;;;;199.13;66.17;;;;;;;;;;5051024;28;20443;-54
2023/08/12 00:02:41;;;;;;;197.80;63.10;;;;;;;;;;5051299;28;20508;-52
2023/08/12 00:05:07;;;;;;;197.87;64.77;;;;;;;;;;5046771;28;20544;-53
2023/08/12 00:07:34;;;;;;;195.13;62.87;;;;;;;;;;5051085;28;20448;-53
2023/08/12 00:10:03;;;;;;;196.90;65.03;;;;;;;;;;5051000;28;20547;-51
2023/08/12 00:12:29;;;;;;;196.63;64.27;;;;;;;;;;5049745;28;20482;-51
2023/08/12 00:14:55;;;;;;;196.17;65.50;;;;;;;;;;5051122;28;20496;-51
2023/08/12 00:17:21;;;;;;;196.47;65.77;;;;;;;;;;5046448;28;20440;-52
2023/08/12 00:19:47;;;;;;;201.20;68.37;;;;;;;;;;5050858;28;20468;-51
2023/08/12 00:22:13;;;;;;;198.63;67.37;;;;;;;;;;5054145;28;20899;-51
2023/08/12 00:24:40;;;;;;;195.13;61.87;;;;;;;;;;5054761;28;20817;-51
2023/08/12 00:27:06;;;;;;;196.30;65.17;;;;;;;;;;5053353;28;20413;-51
2023/08/12 00:29:32;;;;;;;195.20;63.00;;;;;;;;;;5054780;28;20409;-51
2023/08/12 00:31:58;;;;;;;196.37;64.57;;;;;;;;;;5054503;28;20424;-51
2023/08/12 00:34:24;;;;;;;198.17;65.03;;;;;;;;;;5054544;28;20795;-51
2023/08/12 00:36:50;;;;;;;198.30;66.70;;;;;;;;;;5054696;28;20413;-51
2023/08/12 00:39:16;;;;;;;196.80;63.93;;;;;;;;;;5053192;28;20409;-51
2023/08/12 00:41:42;;;;;;;199.03;66.13;;;;;;;;;;5054333;28;20420;-53
2023/08/12 00:44:08;;;;;;;194.13;62.03;;;;;;;;;;5054463;28;20496;-53
2023/08/12 00:46:34;;;;;;;196.80;63.77;;;;;;;;;;5054406;28;20468;-52
2023/08/12 00:49:00;;;;;;;198.40;65.47;;;;;;;;;;5054370;28;20413;-54
2023/08/12 00:51:26;;;;;;;199.40;66.87;;;;;;;;;;5046092;28;20268;-51
2023/08/12 00:53:53;;;;;;;196.07;63.37;;;;;;;;;;5053303;28;20410;-51
2023/08/12 00:56:19;;;;;;;193.93;60.80;;;;;;;;;;5054334;28;20413;-51
2023/08/12 00:58:46;;;;;;;195.63;62.53;;;;;;;;;;5054336;28;20220;-52
2023/08/12 01:01:13;;;;;;;199.17;66.53;;;;;;;;;;5053671;28;20429;-52
2023/08/12 01:03:39;;;;;;;201.67;70.27;;;;;;;;;;5051431;28;20413;-52
2023/08/12 01:06:05;;;;;;;197.93;65.27;;;;;;;;;;5053892;28;20468;-51
2023/08/12 01:08:31;;;;;;;196.80;64.37;;;;;;;;;;5052651;28;20411;-50
2023/08/12 01:11:17;;;;;;;197.03;63.77;;;;;;;;;;5054496;28;20432;-51
2023/08/12 01:14:05;;;;;;;196.23;63.80;;;;;;;;;;5046162;28;20419;-54
2023/08/12 01:16:33;;;;;;;198.70;64.20;;;;;;;;;;5053907;28;20909;-52
2023/08/12 01:19:01;;;;;;;196.50;62.57;;;;;;;;;;5047991;28;20437;-52
2023/08/12 01:21:29;;;;;;;197.23;63.83;;;;;;;;;;5050880;28;20960;-51
2023/08/12 01:23:55;;;;;;;198.27;63.87;;;;;;;;;;5053759;28;20405;-51
2023/08/12 01:26:21;;;;;;;198.07;63.07;;;;;;;;;;5053588;28;20479;-51
2023/08/12 01:28:47;;;;;;;200.37;67.23;;;;;;;;;;5053620;28;20833;-52
2023/08/12 01:31:16;;;;;;;200.80;66.57;;;;;;;;;;5053336;28;20855;-55
2023/08/12 01:33:59;;;;;;;197.27;62.53;;;;;;;;;;5052282;28;20413;-53
2023/08/12 01:36:26;;;;;;;198.07;63.07;;;;;;;;;;5052421;28;20413;-52
2023/08/12 01:38:54;;;;;;;197.27;61.83;;;;;;;;;;5053505;28;20857;-51
2023/08/12 01:41:23;;;;;;;195.33;61.07;;;;;;;;;;5053041;28;20512;-51
2023/08/12 01:43:49;;;;;;;197.70;62.77;;;;;;;;;;5053628;28;20417;-54
2023/08/12 01:46:15;;;;;;;197.13;62.70;;;;;;;;;;5047946;28;20571;-51
2023/08/12 01:48:41;;;;;;;197.17;61.73;;;;;;;;;;5053266;28;20455;-51
2023/08/12 01:51:07;;;;;;;197.27;62.53;;;;;;;;;;5052802;28;20544;-51
2023/08/12 01:53:33;;;;;;;203.00;69.07;;;;;;;;;;5052928;28;20925;-53
2023/08/12 01:55:59;;;;;;;199.47;64.37;;;;;;;;;;5053364;28;20424;-51
2023/08/12 01:58:26;;;;;;;213.38;76.15;;;;;;;;;;5049004;28;20524;-51
2023/08/12 02:00:52;;;;;;;197.47;63.27;;;;;;;;;;5049285;28;20198;-51
2023/08/12 02:03:18;;;;;;;187.00;58.63;;;;;;;;;;5053166;28;20892;-52
2023/08/12 02:05:44;;;;;;;191.37;63.57;;;;;;;;;;5052864;28;21003;-53
2023/08/12 02:08:10;;;;;;;190.53;61.77;;;;;;;;;;5053040;28;20894;-54
2023/08/12 02:10:36;;;;;;;190.17;60.40;;;;;;;;;;5052624;28;20429;-53
2023/08/12 02:13:03;;;;;;;192.50;63.97;;;;;;;;;;5052886;28;20409;-54
2023/08/12 02:15:29;;;;;;;191.57;62.47;;;;;;;;;;5052791;28;20901;-52
2023/08/12 02:17:54;;;;;;;199.33;62.50;;;;;;;;;;5051825;28;20467;-51
2023/08/12 02:20:20;;;;;;;191.53;60.30;;;;;;;;;;5052423;28;20417;-53
2023/08/12 02:22:46;;;;;;;190.17;62.33;;;;;;;;;;5052667;28;20413;-51
2023/08/12 02:25:12;;;;;;;191.47;64.03;;;;;;;;;;5052486;28;20976;-52
2023/08/12 02:27:38;;;;;;;190.63;63.47;;;;;;;;;;5052198;28;20901;-51
2023/08/12 02:30:05;;;;;;;192.40;64.97;;;;;;;;;;5052399;28;20414;-51
2023/08/12 02:32:31;;;;;;;193.40;67.57;;;;;;;;;;5051411;28;21012;-52
2023/08/12 02:34:57;;;;;;;188.93;61.00;;;;;;;;;;5052330;28;20448;-53
2023/08/12 02:37:23;;;;;;;192.97;64.97;;;;;;;;;;5052203;28;20417;-52
2023/08/12 02:39:49;;;;;;;194.93;66.50;;;;;;;;;;5052043;28;20897;-52
2023/08/12 02:42:14;;;;;;;188.07;61.40;;;;;;;;;;5052384;28;21005;-53
2023/08/12 02:44:40;;;;;;;190.10;63.60;;;;;;;;;;5051696;28;20837;-55
2023/08/12 02:47:06;;;;;;;190.10;63.30;;;;;;;;;;5051289;28;20502;-52
2023/08/12 02:49:32;;;;;;;189.80;62.97;;;;;;;;;;5052049;28;20914;-52
2023/08/12 02:51:58;;;;;;;194.17;69.53;;;;;;;;;;5051872;28;20833;-51
2023/08/12 02:54:24;;;;;;;190.03;62.70;;;;;;;;;;5052009;28;20409;-51
2023/08/12 02:56:51;;;;;;;190.80;64.70;;;;;;;;;;5046476;28;20500;-51
2023/08/12 02:59:16;;;;;;;189.83;62.50;;;;;;;;;;5052090;28;20424;-52
2023/08/12 03:01:42;;;;;;;190.90;63.60;;;;;;;;;;5051669;28;20429;-52
2023/08/12 03:04:08;;;;;;;190.10;62.83;;;;;;;;;;5051693;28;20429;-54
2023/08/12 03:06:34;;;;;;;191.23;65.53;;;;;;;;;;5046458;28;20461;-54
2023/08/12 03:09:00;;;;;;;191.03;63.37;;;;;;;;;;5051846;28;20406;-51
2023/08/12 03:11:26;;;;;;;188.93;61.30;;;;;;;;;;5051415;28;20969;-52
2023/08/12 03:13:52;;;;;;;188.33;61.90;;;;;;;;;;5051769;28;20962;-51
2023/08/12 03:16:18;;;;;;;190.97;63.43;;;;;;;;;;5045530;28;20426;-51
2023/08/12 03:18:44;;;;;;;190.70;64.90;;;;;;;;;;5051759;28;20425;-50
2023/08/12 03:21:10;;;;;;;190.57;65.17;;;;;;;;;;5050460;28;20819;-51
2023/08/12 03:23:36;;;;;;;191.87;64.97;;;;;;;;;;5051305;28;20859;-54
2023/08/12 03:26:03;;;;;;;206.80;66.10;;;;;;;;;;5051503;28;20508;-55
2023/08/12 03:28:29;;;;;;;198.80;65.60;;;;;;;;;;5051506;28;20416;-53
2023/08/12 03:30:55;;;;;;;197.43;63.80;;;;;;;;;;5051314;28;20436;-54
2023/08/12 03:33:21;;;;;;;201.27;70.30;;;;;;;;;;5051417;28;20781;-52
2023/08/12 03:35:48;;;;;;;200.47;68.23;;;;;;;;;;5050347;28;20893;-51
2023/08/12 03:38:14;;;;;;;196.47;63.47;;;;;;;;;;5051345;28;20421;-54
2023/08/12 03:40:40;;;;;;;197.90;63.80;;;;;;;;;;5051237;28;20512;-54
2023/08/12 03:43:06;;;;;;;198.90;63.70;;;;;;;;;;5051383;28;20421;-51
2023/08/12 03:45:32;;;;;;;198.80;64.30;;;;;;;;;;5051204;28;20464;-51
2023/08/12 03:47:58;;;;;;;200.50;67.43;;;;;;;;;;5051344;28;20440;-50
2023/08/12 03:50:24;;;;;;;202.13;64.63;;;;;;;;;;5049753;28;20425;-50
2023/08/12 03:52:50;;;;;;;201.77;67.63;;;;;;;;;;5048554;28;20410;-50
2023/08/12 03:55:16;;;;;;;199.40;64.93;;;;;;;;;;5051446;28;20409;-51
2023/08/12 03:57:42;;;;;;;199.57;64.83;;;;;;;;;;5054231;28;20900;-51
2023/08/12 04:00:08;;;;;;;197.50;61.83;;;;;;;;;;5055083;28;20835;-54
2023/08/12 04:02:34;;;;;;;201.40;67.27;;;;;;;;;;5055114;28;20945;-53
2023/08/12 04:05:00;;;;;;;202.57;68.87;;;;;;;;;;5055125;28;20461;-52
2023/08/12 04:07:26;;;;;;;202.50;67.47;;;;;;;;;;5054804;28;20405;-54
2023/08/12 04:09:52;;;;;;;205.30;69.13;;;;;;;;;;5053921;28;20496;-55
2023/08/12 04:12:18;;;;;;;198.63;64.03;;;;;;;;;;5055081;28;20907;-50
2023/08/12 04:14:44;;;;;;;201.17;65.93;;;;;;;;;;5055114;28;20488;-51
2023/08/12 04:17:11;;;;;;;201.57;65.80;;;;;;;;;;5055110;28;20797;-54
2023/08/12 04:19:37;;;;;;;201.53;66.60;;;;;;;;;;5054883;28;20432;-51
2023/08/12 04:22:03;;;;;;;201.10;64.87;;;;;;;;;;5054822;28;20440;-50
2023/08/12 04:24:29;;;;;;;202.70;67.13;;;;;;;;;;5054683;28;20417;-51
2023/08/12 04:26:54;;;;;;;200.87;63.07;;;;;;;;;;5054850;28;20417;-52
2023/08/12 04:29:20;;;;;;;200.80;63.13;;;;;;;;;;5054783;28;20417;-55
2023/08/12 04:31:46;;;;;;;201.67;63.13;;;;;;;;;;5054530;28;20417;-55
2023/08/12 04:34:12;;;;;;;201.47;65.13;;;;;;;;;;5054769;28;20971;-50
2023/08/12 04:36:38;;;;;;;199.93;63.17;;;;;;;;;;5054742;28;20769;-51
2023/08/12 04:39:04;;;;;;;202.60;66.10;;;;;;;;;;5054673;28;20409;-51
2023/08/12 04:41:30;;;;;;;202.33;64.77;;;;;;;;;;5054907;28;20964;-54
2023/08/12 04:43:56;;;;;;;202.80;65.93;;;;;;;;;;5054475;28;20944;-55
2023/08/12 04:46:22;;;;;;;200.17;62.77;;;;;;;;;;5054285;28;20460;-54
2023/08/12 04:48:48;;;;;;;198.90;61.53;;;;;;;;;;5054346;28;20901;-54
2023/08/12 04:51:14;;;;;;;200.43;64.60;;;;;;;;;;5053961;28;20466;-54
2023/08/12 04:53:40;;;;;;;199.97;62.63;;;;;;;;;;5054524;28;20405;-53
2023/08/12 04:56:07;;;;;;;200.07;62.90;;;;;;;;;;5054434;28;20748;-54
2023/08/12 04:58:33;;;;;;;199.77;62.87;;;;;;;;;;5054263;28;20409;-53
2023/08/12 05:00:59;;;;;;;198.33;61.87;;;;;;;;;;5054459;28;20456;-54
2023/08/12 05:03:25;;;;;;;203.00;66.13;;;;;;;;;;5054065;28;20409;-54
2023/08/12 05:05:52;;;;;;;200.87;64.57;;;;;;;;;;5054005;28;20468;-54
2023/08/12 05:08:18;;;;;;;203.23;66.80;;;;;;;;;;5053619;28;20409;-53
2023/08/12 05:10:44;;;;;;;198.30;62.80;;;;;;;;;;5053893;28;20469;-54
2023/08/12 05:13:10;;;;;;;202.87;68.30;;;;;;;;;;5050103;28;20402;-53
2023/08/12 05:15:36;;;;;;;201.53;66.33;;;;;;;;;;5053787;28;20421;-53
2023/08/12 05:18:02;;;;;;;194.20;61.23;;;;;;;;;;5046649;28;20757;-54
2023/08/12 05:20:28;;;;;;;193.23;63.50;;;;;;;;;;5052870;28;20417;-53
2023/08/12 05:22:54;;;;;;;196.47;72.73;;;;;;;;;;5053839;28;20455;-54
2023/08/12 05:25:20;;;;;;;196.80;66.70;;;;;;;;;;5053533;28;21074;-54
2023/08/12 05:27:46;;;;;;;196.07;66.93;;;;;;;;;;5053675;28;20889;-54
2023/08/12 05:30:12;;;;;;;198.53;67.13;;;;;;;;;;5053527;28;20401;-54
2023/08/12 05:32:38;;;;;;;199.10;64.37;;;;;;;;;;5053603;28;20892;-54
2023/08/12 05:35:05;;;;;;;198.07;63.17;;;;;;;;;;5053114;28;20453;-54
2023/08/12 05:37:31;;;;;;;201.00;64.70;;;;;;;;;;5053481;28;20893;-54
2023/08/12 05:39:57;;;;;;;204.30;70.50;;;;;;;;;;5053275;28;20575;-53
2023/08/12 05:42:22;;;;;;;199.70;64.13;;;;;;;;;;5053167;28;20461;-52
2023/08/12 05:44:48;;;;;;;196.27;62.27;;;;;;;;;;5053410;28;20461;-53
2023/08/12 05:47:14;;;;;;;198.93;65.53;;;;;;;;;;5053019;28;20405;-54
2023/08/12 05:49:42;;;;;;;200.30;65.23;;;;;;;;;;5052995;28;20409;-54
2023/08/12 05:52:08;;;;;;;195.47;63.57;;;;;;;;;;5052060;28;20441;-54
2023/08/12 05:54:34;;;;;;;195.77;64.33;;;;;;;;;;5053013;28;20448;-53
2023/08/12 05:57:00;;;;;;;195.57;65.33;;;;;;;;;;5053121;28;20524;-54
2023/08/12 05:59:26;;;;;;;199.50;77.50;;;;;;;;;;5053082;28;20425;-54
2023/08/12 06:01:52;;;;;;;192.10;68.90;;;;;;;;;;5052411;28;20436;-54
2023/08/12 06:04:18;;;;;;;198.43;68.57;;;;;;;;;;5052793;28;20405;-53
2023/08/12 06:06:44;;;;;;;195.60;66.17;;;;;;;;;;5053072;28;20507;-53
2023/08/12 06:09:09;;;;;;;195.00;65.33;;;;;;;;;;5052707;28;20414;-54
2023/08/12 06:11:35;;;;;;;194.73;65.67;;;;;;;;;;5052501;28;20433;-53
2023/08/12 06:14:01;;;;;;;195.70;63.40;;;;;;;;;;5052859;28;20413;-54
2023/08/12 06:16:27;;;;;;;195.63;65.90;;;;;;;;;;5052404;28;20555;-53
2023/08/12 06:18:53;;;;;;;192.50;62.90;;;;;;;;;;5050052;28;20417;-52
2023/08/12 06:21:19;;;;;;;196.60;67.13;;;;;;;;;;5052337;28;20452;-54
2023/08/12 06:23:45;;;;;;;194.40;68.10;;;;;;;;;;5050501;28;20413;-53
2023/08/12 06:26:11;;;;;;;193.67;65.43;;;;;;;;;;5048267;28;20539;-54
2023/08/12 06:28:37;;;;;;;192.47;63.87;;;;;;;;;;5052214;28;20405;-53
2023/08/12 06:31:03;;;;;;;195.60;65.80;;;;;;;;;;5051481;28;20433;-53
2023/08/12 06:33:29;;;;;;;193.73;65.20;;;;;;;;;;5051728;28;20417;-54
2023/08/12 06:35:55;;;;;;;192.27;62.63;;;;;;;;;;5052547;28;20421;-53
2023/08/12 06:38:21;;;;;;;193.53;63.43;;;;;;;;;;5052391;28;20417;-54
2023/08/12 06:40:47;;;;;;;192.30;61.50;;;;;;;;;;5052192;28;20941;-54
2023/08/12 06:43:13;;;;;;;192.73;60.47;;;;;;;;;;5051841;28;20531;-53
2023/08/12 06:45:39;;;;;;;194.67;64.40;;;;;;;;;;5052229;28;20870;-53
2023/08/12 06:48:05;;;;;;;195.37;63.47;;;;;;;;;;5052208;28;20486;-54
2023/08/12 06:50:33;;;;;;;192.53;62.73;;;;;;;;;;5051680;28;20425;-54
2023/08/12 06:52:59;;;;;;;193.20;64.43;;;;;;;;;;5044430;28;20418;-53
2023/08/12 06:55:25;;;;;;;193.87;65.50;;;;;;;;;;5051945;28;20417;-53
2023/08/12 06:57:50;;;;;;;194.33;65.43;;;;;;;;;;5052059;28;20496;-53
2023/08/12 07:00:16;;;;;;;194.93;65.97;;;;;;;;;;5051677;28;20409;-53
2023/08/12 07:02:43;;;;;;;194.33;64.27;;;;;;;;;;5052894;28;20893;-54
2023/08/12 07:05:09;;;;;;;191.70;61.37;;;;;;;;;;5051725;28;20468;-53
2023/08/12 07:07:35;;;;;;;193.40;65.37;;;;;;;;;;5051718;28;20409;-53
2023/08/12 07:10:01;;;;;;;192.83;61.60;;;;;;;;;;5051820;28;20420;-53
2023/08/12 07:12:27;;;;;;;191.30;61.47;;;;;;;;;;5051533;28;20449;-52
2023/08/12 07:14:53;;;;;;;193.13;63.07;;;;;;;;;;5051951;28;20470;-53
2023/08/12 07:17:19;;;;;;;191.40;60.67;;;;;;;;;;5048687;28;20414;-53
2023/08/12 07:19:44;;;;;;;193.13;62.30;;;;;;;;;;5048033;28;20795;-52
2023/08/12 07:22:10;;;;;;;192.93;64.17;;;;;;;;;;5055920;28;20918;-53
2023/08/12 07:24:36;;;;;;;191.80;62.67;;;;;;;;;;5051911;28;20432;-52
2023/08/12 07:27:02;;;;;;;190.67;60.60;;;;;;;;;;5051794;28;20464;-53
2023/08/12 07:29:28;;;;;;;192.20;61.70;;;;;;;;;;5046080;28;20523;-53
2023/08/12 07:31:54;;;;;;;191.60;61.77;;;;;;;;;;5051290;28;20984;-53
2023/08/12 07:34:20;;;;;;;192.27;62.40;;;;;;;;;;5051155;28;20906;-52
2023/08/12 07:36:46;;;;;;;192.93;61.93;;;;;;;;;;5051703;28;20423;-53
2023/08/12 07:39:12;;;;;;;195.53;66.17;;;;;;;;;;5044954;28;20518;-54
2023/08/12 07:41:38;;;;;;;193.17;62.83;;;;;;;;;;5049549;28;20448;-52
2023/08/12 07:44:04;;;;;;;199.83;71.63;;;;;;;;;;5046761;28;20422;-52
2023/08/12 07:46:30;;;;;;;195.93;66.00;;;;;;;;;;5047613;28;20868;-53
2023/08/12 07:48:57;;;;;;;194.60;67.50;;;;;;;;;;5051229;28;20413;-53
2023/08/12 07:51:23;;;;;;;197.83;68.80;;;;;;;;;;5050704;28;20499;-53
2023/08/12 07:53:49;;;;;;;189.40;60.30;;;;;;;;;;5051311;28;20481;-53
2023/08/12 07:56:15;;;;;;;193.27;64.40;;;;;;;;;;5051369;28;20449;-54
2023/08/12 07:58:41;;;;;;;193.33;64.53;;;;;;;;;;5049814;28;20421;-53
2023/08/12 08:01:08;;;;;;;196.20;66.50;;;;;;;;;;5049373;28;20421;-53
2023/08/12 08:03:34;;;;;;;196.73;67.50;;;;;;;;;;5050416;28;20404;-53
2023/08/12 08:06:00;;;;;;;194.30;65.60;;;;;;;;;;5051105;28;20457;-54
2023/08/12 08:08:26;;;;;;;192.13;63.73;;;;;;;;;;5050158;28;20432;-54
2023/08/12 08:10:52;;;;;;;194.50;65.17;;;;;;;;;;5050896;28;20465;-54
2023/08/12 08:13:18;;;;;;;191.70;62.87;;;;;;;;;;5049692;28;20409;-53
2023/08/12 08:15:45;;;;;;;190.97;61.47;;;;;;;;;;5048153;28;20448;-54
2023/08/12 08:18:11;;;;;;;193.67;65.07;;;;;;;;;;5050951;28;20421;-52
2023/08/12 08:20:37;;;;;;;191.43;60.40;;;;;;;;;;5050741;28;20437;-54
2023/08/12 08:23:03;;;;;;;193.60;65.97;;;;;;;;;;5051368;28;20774;-53
2023/08/12 08:25:29;;;;;;;192.43;63.27;;;;;;;;;;5050784;28;20464;-54
2023/08/12 08:27:55;;;;;;;191.97;62.23;;;;;;;;;;5051075;28;20409;-53
2023/08/12 08:30:22;;;;;;;192.97;63.53;;;;;;;;;;5045693;28;20811;-54
2023/08/12 08:32:49;;;;;;;193.20;63.77;;;;;;;;;;5050607;28;20437;-54
2023/08/12 08:35:15;;;;;;;192.30;63.20;;;;;;;;;;5050977;28;20767;-53
2023/08/12 08:37:41;;;;;;;192.90;62.73;;;;;;;;;;5050748;28;20420;-53
2023/08/12 08:40:08;;;;;;;194.77;66.13;;;;;;;;;;5050878;28;20413;-54
2023/08/12 08:42:34;;;;;;;193.07;64.53;;;;;;;;;;5052827;28;20448;-54
2023/08/12 08:45:04;;;;;;;192.73;63.30;;;;;;;;;;5053069;28;20457;-54
2023/08/12 08:47:30;;;;;;;192.90;63.07;;;;;;;;;;5054340;28;20992;-53
2023/08/12 08:49:57;;;;;;;198.57;69.93;;;;;;;;;;5054238;28;20456;-54
2023/08/12 08:52:23;;;;;;;198.13;70.43;;;;;;;;;;5054318;28;20457;-54
2023/08/12 08:54:50;;;;;;;192.27;63.13;;;;;;;;;;5054477;28;20424;-53
2023/08/12 08:57:16;;;;;;;197.43;70.73;;;;;;;;;;5054327;28;20428;-53
2023/08/12 08:59:42;;;;;;;196.03;64.93;;;;;;;;;;5054032;28;20409;-54
2023/08/12 09:02:12;;;;;;;195.47;67.90;;;;;;;;;;5054119;28;20438;-54
2023/08/12 09:04:38;;;;;;;193.53;63.20;;;;;;;;;;5053982;28;20963;-53
2023/08/12 09:07:05;;;;;;;196.20;67.80;;;;;;;;;;5052571;28;20808;-54
2023/08/12 09:09:31;;;;;;;196.47;67.57;;;;;;;;;;5052964;28;20413;-54
2023/08/12 09:11:57;;;;;;;193.63;66.73;;;;;;;;;;5053905;28;20512;-54
2023/08/12 09:14:23;;;;;;;191.17;62.10;;;;;;;;;;5054056;28;20402;-53
2023/08/12 09:16:49;;;;;;;191.67;62.93;;;;;;;;;;5053785;28;20445;-54
2023/08/12 09:19:15;;;;;;;189.77;60.47;;;;;;;;;;5053953;28;20847;-54
2023/08/12 09:21:42;;;;;;;192.43;63.80;;;;;;;;;;5053667;28;20855;-53
2023/08/12 09:24:08;;;;;;;193.13;66.17;;;;;;;;;;5053783;28;20425;-54
2023/08/12 09:26:34;;;;;;;194.97;66.27;;;;;;;;;;5053711;28;20461;-54
2023/08/12 09:29:00;;;;;;;193.97;64.77;;;;;;;;;;5053813;28;20504;-54
2023/08/12 09:31:30;;;;;;;197.03;67.33;;;;;;;;;;5053255;28;20905;-54
2023/08/12 09:34:08;;;;;;;197.00;67.73;;;;;;;;;;5053741;28;20432;-54
2023/08/12 09:36:35;;;;;;;193.77;64.47;;;;;;;;;;5053673;28;20468;-53
2023/08/12 09:39:00;;;;;;;194.23;64.77;;;;;;;;;;5035826;28;20444;-54
2023/08/12 09:41:27;;;;;;;196.90;68.57;;;;;;;;;;5048082;28;20437;-53
2023/08/12 09:43:53;;;;;;;195.77;67.33;;;;;;;;;;5053341;28;20901;-54
2023/08/12 09:46:21;;;;;;;195.83;67.20;;;;;;;;;;5053384;28;20903;-54
2023/08/12 09:48:47;;;;;;;192.53;63.27;;;;;;;;;;5053371;28;20466;-54
2023/08/12 09:51:13;;;;;;;193.97;65.80;;;;;;;;;;5052913;28;20932;-53
2023/08/12 09:53:41;;;;;;;194.70;65.47;;;;;;;;;;5052080;28;20413;-53
2023/08/12 09:56:08;;;;;;;194.60;64.47;;;;;;;;;;5053403;28;20409;-54
2023/08/12 09:58:36;;;;;;;198.83;70.33;;;;;;;;;;5053190;28;20421;-54
2023/08/12 10:01:03;;;;;;;195.13;63.73;;;;;;;;;;5052894;28;20448;-54
2023/08/12 10:03:30;;;;;;;194.67;63.80;;;;;;;;;;5051553;28;20492;-54
2023/08/12 10:05:56;;;;;;;196.20;65.77;;;;;;;;;;5052779;28;20461;-53
2023/08/12 10:08:22;;;;;;;196.57;66.00;;;;;;;;;;5052907;28;20416;-54
2023/08/12 10:10:48;;;;;;;196.93;67.67;;;;;;;;;;5052575;28;20441;-53
2023/08/12 10:13:15;;;;;;;196.83;68.50;;;;;;;;;;5053080;28;20413;-53
2023/08/12 10:15:41;;;;;;;197.37;67.27;;;;;;;;;;5044941;28;20413;-53
2023/08/12 10:18:07;;;;;;;193.23;63.83;;;;;;;;;;5051925;28;20416;-54
2023/08/12 10:20:35;;;;;;;195.00;63.77;;;;;;;;;;5049402;28;20466;-53
2023/08/12 10:23:01;;;;;;;196.37;67.17;;;;;;;;;;5052648;28;20825;-54
2023/08/12 10:25:31;;;;;;;196.20;67.90;;;;;;;;;;5052438;28;20995;-54
2023/08/12 10:27:57;;;;;;;195.20;63.23;;;;;;;;;;5052574;28;20414;-54
2023/08/12 10:30:23;;;;;;;194.73;61.80;;;;;;;;;;5050926;28;20413;-54
2023/08/12 10:32:49;;;;;;;194.47;65.83;;;;;;;;;;5052669;28;20405;-54
2023/08/12 10:35:15;;;;;;;193.53;63.20;;;;;;;;;;5052381;28;20410;-54
2023/08/12 10:37:41;;;;;;;197.43;68.73;;;;;;;;;;5052010;28;20489;-54
2023/08/12 10:40:20;;;;;;;195.90;65.23;;;;;;;;;;5052245;28;20781;-54
2023/08/12 10:42:47;;;;;;;195.23;64.50;;;;;;;;;;5045695;28;20935;-52
2023/08/12 10:45:14;;;;;;;195.40;66.20;;;;;;;;;;5050928;28;20490;-52
2023/08/12 10:47:44;;;;;;;200.20;70.27;;;;;;;;;;5044065;28;20417;-53
2023/08/12 10:50:20;;;;;;;198.13;67.97;;;;;;;;;;5052095;28;20471;-53
2023/08/12 10:52:46;;;;;;;197.10;66.10;;;;;;;;;;5042706;28;20400;-51
2023/08/12 10:55:19;;;;;;;194.37;63.37;;;;;;;;;;5048571;28;20412;-54
2023/08/12 10:57:45;;;;;;;192.50;62.10;;;;;;;;;;5044782;28;20498;-52
2023/08/12 11:00:13;;;;;;;196.73;66.30;;;;;;;;;;5051027;28;20424;-52
2023/08/12 11:02:40;;;;;;;197.97;69.20;;;;;;;;;;5046635;28;20440;-52
2023/08/12 11:05:10;;;;;;;196.83;67.27;;;;;;;;;;5051507;28;20464;-52
2023/08/12 11:07:41;;;;;;;199.93;73.03;;;;;;;;;;5050838;28;20425;-52
2023/08/12 11:10:07;;;;;;;198.23;70.43;;;;;;;;;;5051744;28;20416;-52
2023/08/12 11:12:34;;;;;;;193.03;64.43;;;;;;;;;;5051526;28;20964;-52
2023/08/12 11:15:01;;;;;;;193.43;65.83;;;;;;;;;;5052105;28;20402;-52
2023/08/12 11:17:46;;;;;;;198.30;71.53;;;;;;;;;;5051940;28;20497;-52
2023/08/12 11:20:13;;;;;;;197.50;71.50;;;;;;;;;;5031791;28;20405;-52
2023/08/12 11:22:43;;;;;;;190.60;61.50;;;;;;;;;;5049927;28;20439;-52
2023/08/12 11:25:10;;;;;;;196.10;69.60;;;;;;;;;;5051384;28;20460;-52
2023/08/12 11:27:46;;;;;;;193.37;65.63;;;;;;;;;;5051679;28;20419;-52
2023/08/12 11:30:15;;;;;;;196.43;69.20;;;;;;;;;;5051431;28;20412;-52
2023/08/12 11:32:41;;;;;;;192.67;64.37;;;;;;;;;;5051560;28;20435;-52
2023/08/12 11:35:08;;;;;;;195.47;66.13;;;;;;;;;;5051564;28;20467;-52
2023/08/12 11:37:36;;;;;;;195.47;66.20;;;;;;;;;;5051390;28;20412;-53
2023/08/12 11:40:03;;;;;;;190.40;60.90;;;;;;;;;;5051357;28;20455;-54
2023/08/12 11:42:29;;;;;;;191.83;63.30;;;;;;;;;;5051469;28;20439;-53
2023/08/12 11:44:55;;;;;;;193.63;64.53;;;;;;;;;;5051329;28;20415;-52
2023/08/12 11:47:21;;;;;;;193.87;66.77;;;;;;;;;;5051575;28;20777;-53
2023/08/12 11:49:47;;;;;;;202.07;74.00;;;;;;;;;;5051128;28;20424;-52
2023/08/12 11:52:13;;;;;;;196.30;67.97;;;;;;;;;;5043831;28;20509;-51
2023/08/12 11:54:39;;;;;;;196.23;70.27;;;;;;;;;;5035874;28;20416;-51
2023/08/12 11:57:06;;;;;;;193.13;64.33;;;;;;;;;;5051385;28;20779;-52
2023/08/12 11:59:32;;;;;;;196.47;68.53;;;;;;;;;;5051809;28;20398;-51
2023/08/12 12:01:58;;;;;;;191.17;61.57;;;;;;;;;;5051082;28;20868;-51
2023/08/12 12:04:24;;;;;;;194.20;66.30;;;;;;;;;;5051245;28;20494;-52
2023/08/12 12:06:50;;;;;;;193.43;64.33;;;;;;;;;;5051086;28;20842;-52
2023/08/12 12:09:18;;;;;;;192.87;64.03;;;;;;;;;;5051342;28;20898;-52
2023/08/12 12:11:44;;;;;;;191.90;63.73;;;;;;;;;;5050942;28;20433;-52
2023/08/12 12:14:11;;;;;;;195.20;67.43;;;;;;;;;;5051270;28;20471;-52
2023/08/12 12:16:44;;;;;;;193.03;65.57;;;;;;;;;;5051796;28;20420;-52
2023/08/12 12:19:21;;;;;;;194.77;66.37;;;;;;;;;;5055116;28;20973;-51
2023/08/12 12:21:47;;;;;;;193.70;66.87;;;;;;;;;;5055144;28;20432;-52
2023/08/12 12:24:14;;;;;;;191.93;65.67;;;;;;;;;;5054711;28;20405;-53
2023/08/12 12:26:41;;;;;;;190.37;62.57;;;;;;;;;;5052157;28;20463;-52
2023/08/12 12:29:07;;;;;;;193.07;65.87;;;;;;;;;;5054926;28;20443;-54
2023/08/12 12:31:34;;;;;;;190.50;62.07;;;;;;;;;;5054381;28;20975;-53
2023/08/12 12:34:00;;;;;;;192.60;64.57;;;;;;;;;;5054775;28;20417;-52
2023/08/12 12:36:26;;;;;;;194.33;67.53;;;;;;;;;;5053918;28;20771;-52
2023/08/12 12:38:52;;;;;;;194.93;67.97;;;;;;;;;;5054775;28;20409;-52
2023/08/12 12:41:18;;;;;;;196.40;68.30;;;;;;;;;;5054294;28;20468;-52
2023/08/12 12:43:44;;;;;;;197.93;69.77;;;;;;;;;;5054515;28;20421;-53
2023/08/12 12:46:10;;;;;;;200.90;72.53;;;;;;;;;;5054433;28;20468;-52
2023/08/12 12:48:36;;;;;;;199.27;75.70;;;;;;;;;;5054321;28;20413;-55
2023/08/12 12:51:02;;;;;;;197.67;73.47;;;;;;;;;;5053214;28;20451;-53
2023/08/12 12:53:28;;;;;;;214.67;87.50;;;;;;;;;;5053407;28;20413;-52
2023/08/12 12:55:56;;;;;;;196.53;72.83;;;;;;;;;;5054286;28;20820;-53
2023/08/12 12:58:23;;;;;;;200.43;77.80;;;;;;;;;;5054405;28;20453;-53
2023/08/12 13:00:49;;;;;;;197.40;76.43;;;;;;;;;;5035083;28;20444;-54
2023/08/12 13:03:15;;;;;;;195.87;71.87;;;;;;;;;;5050037;28;20417;-52
2023/08/12 13:05:41;;;;;;;196.43;73.30;;;;;;;;;;5054054;28;20468;-52
2023/08/12 13:08:07;;;;;;;197.53;73.63;;;;;;;;;;5054176;28;20422;-52
2023/08/12 13:10:33;;;;;;;197.37;73.47;;;;;;;;;;5053789;28;20421;-53
2023/08/12 13:12:58;;;;;;;193.97;68.40;;;;;;;;;;5054112;28;20409;-54
2023/08/12 13:15:26;;;;;;;198.23;72.37;;;;;;;;;;5054020;28;21067;-52
2023/08/12 13:17:52;;;;;;;198.33;72.33;;;;;;;;;;5053994;28;20447;-52
2023/08/12 13:20:18;;;;;;;193.47;65.93;;;;;;;;;;5053749;28;20459;-54
2023/08/12 13:22:44;;;;;;;197.27;70.77;;;;;;;;;;5053884;28;20421;-53
2023/08/12 13:25:10;;;;;;;195.23;69.23;;;;;;;;;;5053703;28;20472;-54
2023/08/12 13:27:36;;;;;;;194.73;68.87;;;;;;;;;;5053626;28;20545;-52
2023/08/12 13:30:02;;;;;;;193.70;68.40;;;;;;;;;;5053377;28;20412;-52
2023/08/12 13:32:28;;;;;;;191.67;65.30;;;;;;;;;;5053638;28;20836;-52
2023/08/12 13:34:54;;;;;;;192.63;65.40;;;;;;;;;;5053800;28;20487;-52
2023/08/12 13:37:20;;;;;;;189.80;62.60;;;;;;;;;;5053614;28;20972;-52
2023/08/12 13:39:45;;;;;;;191.63;64.90;;;;;;;;;;5053031;28;20943;-53
2023/08/12 13:42:11;;;;;;;192.07;65.13;;;;;;;;;;5053582;28;20773;-54
2023/08/12 13:44:37;;;;;;;195.80;69.80;;;;;;;;;;5053215;28;20418;-53
2023/08/12 13:47:03;;;;;;;191.47;64.47;;;;;;;;;;5053488;28;20459;-52
2023/08/12 13:49:29;;;;;;;196.47;68.27;;;;;;;;;;5053390;28;20424;-51
2023/08/12 13:51:55;;;;;;;199.37;68.50;;;;;;;;;;5053309;28;20447;-53
2023/08/12 13:54:21;;;;;;;193.17;64.83;;;;;;;;;;5053219;28;20410;-52
2023/08/12 13:56:47;;;;;;;194.30;66.43;;;;;;;;;;5053306;28;20422;-52
2023/08/12 13:59:13;;;;;;;193.00;63.67;;;;;;;;;;5053124;28;20420;-54